createdAt,value
2022-11-17T00:01:22.143Z,4.10
2022-11-17T00:03:50.572Z,3.25
2022-11-17T00:06:20.431Z,4.18
2022-11-17T00:08:48.866Z,1.72
2022-11-17T00:11:15.964Z,0.12
2022-11-17T00:14:01.185Z,0.89
2022-11-17T00:16:27.955Z,4.46
2022-11-17T00:19:13.994Z,4.39
2022-11-17T00:21:40.767Z,5.31
2022-11-17T00:24:08.274Z,5.10
2022-11-17T00:26:56.563Z,5.00
2022-11-17T00:29:23.649Z,3.32
2022-11-17T00:32:09.548Z,1.65
2022-11-17T00:34:36.340Z,2.21
2022-11-17T00:37:03.596Z,4.53
2022-11-17T00:39:30.729Z,5.31
2022-11-17T00:41:57.524Z,5.53
2022-11-17T00:44:25.333Z,5.35
2022-11-17T00:46:52.341Z,5.39
2022-11-17T00:49:25.431Z,5.56
2022-11-17T00:51:56.331Z,6.22
2022-11-17T00:54:24.627Z,4.68
2022-11-17T00:56:51.384Z,4.59
2022-11-17T00:59:18.450Z,1.85
2022-11-17T01:01:45.439Z,3.59
2022-11-17T01:04:16.115Z,5.08
2022-11-17T01:06:45.738Z,6.23
2022-11-17T01:09:14.253Z,5.37
2022-11-17T01:11:42.532Z,4.20
2022-11-17T01:14:14.004Z,5.70
2022-11-17T01:16:41.589Z,5.95
2022-11-17T01:19:10.817Z,4.97
2022-11-17T01:21:37.705Z,3.13
2022-11-17T01:24:04.879Z,3.83
2022-11-17T01:26:35.070Z,5.21
2022-11-17T01:29:03.846Z,6.25
2022-11-17T01:31:33.456Z,6.37
2022-11-17T01:34:00.473Z,6.81
2022-11-17T01:36:56.633Z,4.76
2022-11-17T01:39:25.271Z,5.74
2022-11-17T01:41:53.858Z,6.94
2022-11-17T01:44:35.876Z,2.91
2022-11-17T01:47:13.402Z,5.29
2022-11-17T01:49:40.166Z,5.79
2022-11-17T01:52:09.734Z,3.53
2022-11-17T01:54:40.523Z,4.67
2022-11-17T01:57:12.391Z,5.12
2022-11-17T01:59:54.398Z,4.95
2022-11-17T02:02:21.543Z,1.12
2022-11-17T02:04:59.768Z,2.23
2022-11-17T02:07:29.971Z,3.34
2022-11-17T02:09:57.465Z,2.98
2022-11-17T02:12:26.800Z,2.89
2022-11-17T02:14:55.236Z,4.70
2022-11-17T02:17:24.328Z,5.48
2022-11-17T02:20:01.816Z,4.23
2022-11-17T02:22:53.276Z,4.01
2022-11-17T02:25:57.252Z,2.71
2022-11-17T02:28:30.599Z,5.74
2022-11-17T02:31:23.397Z,5.80
2022-11-17T02:33:56.335Z,3.83
2022-11-17T02:36:30.762Z,5.26
2022-11-17T02:39:23.346Z,3.53
2022-11-17T02:42:02.863Z,5.32
2022-11-17T02:44:37.989Z,5.19
2022-11-17T02:47:19.171Z,6.41
2022-11-17T02:50:03.599Z,4.57
2022-11-17T02:52:30.874Z,5.97
2022-11-17T02:55:01.649Z,5.68
2022-11-17T02:57:28.693Z,4.91
2022-11-17T02:59:57.061Z,6.62
2022-11-17T03:02:44.864Z,6.50
2022-11-17T03:05:30.012Z,4.02
2022-11-17T03:08:27.586Z,5.37
2022-11-17T03:11:05.386Z,5.10
2022-11-17T03:13:35.391Z,5.07
2022-11-17T03:16:39.914Z,4.48
2022-11-17T03:19:17.772Z,5.47
2022-11-17T03:22:25.807Z,5.93
2022-11-17T03:24:59.852Z,5.54
2022-11-17T03:27:31.184Z,6.08
2022-11-17T03:30:02.144Z,5.34
2022-11-17T03:32:36.339Z,6.28
2022-11-17T03:35:13.022Z,6.63
2022-11-17T03:37:46.080Z,5.79
2022-11-17T03:40:15.103Z,5.54
2022-11-17T03:42:46.340Z,5.62
2022-11-17T03:45:20.859Z,5.61
2022-11-17T03:47:51.978Z,4.71
2022-11-17T03:50:24.153Z,4.76
2022-11-17T03:52:52.189Z,6.00
2022-11-17T03:55:19.304Z,4.94
2022-11-17T03:57:57.328Z,6.58
2022-11-17T04:00:24.364Z,7.29
2022-11-17T04:02:55.934Z,6.21
2022-11-17T04:05:22.853Z,6.50
2022-11-17T04:07:49.637Z,6.71
2022-11-17T04:10:19.368Z,6.08
2022-11-17T04:13:05.377Z,5.75
2022-11-17T04:15:52.327Z,4.24
2022-11-17T04:18:23.530Z,5.02
2022-11-17T04:20:52.127Z,6.02
2022-11-17T04:23:19.344Z,5.28
2022-11-17T04:26:13.341Z,6.15
2022-11-17T04:28:43.846Z,5.95
2022-11-17T04:31:14.548Z,6.58
2022-11-17T04:33:46.476Z,7.58
2022-11-17T04:36:15.468Z,6.95
2022-11-17T04:38:54.081Z,7.07
2022-11-17T04:41:41.742Z,8.19
2022-11-17T04:44:10.673Z,7.23
2022-11-17T04:46:38.663Z,7.92
2022-11-17T04:49:06.572Z,7.72
2022-11-17T04:51:34.835Z,6.35
2022-11-17T04:54:02.988Z,7.68
2022-11-17T04:56:29.719Z,5.50
2022-11-17T04:58:56.889Z,7.09
2022-11-17T05:01:24.876Z,6.75
2022-11-17T05:03:54.157Z,5.98
2022-11-17T05:06:25.989Z,4.49
2022-11-17T05:08:56.976Z,7.09
2022-11-17T05:11:45.749Z,7.42
2022-11-17T05:14:14.334Z,5.27
2022-11-17T05:17:03.229Z,4.05
2022-11-17T05:19:36.789Z,4.97
2022-11-17T05:22:24.962Z,6.07
2022-11-17T05:24:52.695Z,5.91
2022-11-17T05:27:20.435Z,7.03
2022-11-17T05:29:47.220Z,6.90
2022-11-17T05:32:14.354Z,8.30
2022-11-17T05:34:41.438Z,7.92
2022-11-17T05:37:08.340Z,8.13
2022-11-17T05:39:35.075Z,7.79
2022-11-17T05:42:02.161Z,8.07
2022-11-17T05:44:28.834Z,5.97
2022-11-17T05:46:56.120Z,7.85
2022-11-17T05:49:22.917Z,7.26
2022-11-17T05:51:52.692Z,7.23
2022-11-17T05:54:20.345Z,8.15
2022-11-17T05:56:56.708Z,7.96
2022-11-17T05:59:40.442Z,8.71
2022-11-17T06:02:14.323Z,8.66
2022-11-17T06:04:41.709Z,9.40
2022-11-17T06:07:10.643Z,8.75
2022-11-17T06:09:40.701Z,6.81
2022-11-17T06:12:07.803Z,7.48
2022-11-17T06:14:35.554Z,4.99
2022-11-17T06:17:08.376Z,4.56
2022-11-17T06:19:40.881Z,6.60
2022-11-17T06:22:12.554Z,5.87
2022-11-17T06:24:44.248Z,5.52
2022-11-17T06:27:13.997Z,5.11
2022-11-17T06:29:44.896Z,6.81
2022-11-17T06:32:17.595Z,7.07
2022-11-17T06:34:53.626Z,6.17
2022-11-17T06:37:22.268Z,5.55
2022-11-17T06:39:48.925Z,5.57
2022-11-17T06:42:15.583Z,7.31
2022-11-17T06:44:42.819Z,6.55
2022-11-17T06:47:09.545Z,8.52
2022-11-17T06:49:36.266Z,6.78
2022-11-17T06:52:02.967Z,8.20
2022-11-17T06:54:29.924Z,8.55
2022-11-17T06:56:57.297Z,6.75
2022-11-17T06:59:24.473Z,7.17
2022-11-17T07:01:51.309Z,7.75
2022-11-17T07:04:18.023Z,6.58
2022-11-17T07:06:44.806Z,7.22
2022-11-17T07:09:12.222Z,6.46
2022-11-17T07:11:39.538Z,7.60
2022-11-17T07:14:06.434Z,6.57
2022-11-17T07:16:33.226Z,8.68
2022-11-17T07:19:03.489Z,8.70
2022-11-17T07:21:30.406Z,5.76
2022-11-17T07:23:58.155Z,7.55
2022-11-17T07:26:25.051Z,7.68
2022-11-17T07:28:51.860Z,6.07
2022-11-17T07:31:18.606Z,7.34
2022-11-17T07:33:45.350Z,8.58
2022-11-17T07:36:15.432Z,8.31
2022-11-17T07:38:43.058Z,10.14
2022-11-17T07:41:12.576Z,7.59
2022-11-17T07:43:40.413Z,8.20
2022-11-17T07:46:09.126Z,9.83
2022-11-17T07:48:36.775Z,8.93
2022-11-17T07:51:04.800Z,8.56
2022-11-17T07:53:34.652Z,7.12
2022-11-17T07:56:09.608Z,7.38
2022-11-17T07:58:38.045Z,7.98
2022-11-17T08:01:10.220Z,8.49
2022-11-17T08:03:37.326Z,8.36
2022-11-17T08:06:05.904Z,9.89
2022-11-17T08:08:34.217Z,9.74
2022-11-17T08:11:08.600Z,11.00
2022-11-17T08:13:35.870Z,9.43
2022-11-17T08:16:03.050Z,10.46
2022-11-17T08:18:30.659Z,10.19
2022-11-17T08:21:05.490Z,7.61
2022-11-17T08:23:33.092Z,7.10
2022-11-17T08:26:02.064Z,7.21
2022-11-17T08:28:29.182Z,8.98
2022-11-17T08:30:56.104Z,10.20
2022-11-17T08:33:23.501Z,11.15
2022-11-17T08:35:50.234Z,10.22
2022-11-17T08:38:17.334Z,10.53
2022-11-17T08:40:46.100Z,12.43
2022-11-17T08:43:13.323Z,11.75
2022-11-17T08:45:43.067Z,11.21
2022-11-17T08:48:09.971Z,11.60
2022-11-17T08:50:36.794Z,10.98
2022-11-17T08:53:03.794Z,12.27
2022-11-17T08:55:30.680Z,13.10
2022-11-17T08:57:57.981Z,10.38
2022-11-17T09:00:25.024Z,9.82
2022-11-17T09:02:51.897Z,10.24
2022-11-17T09:05:18.898Z,11.59
2022-11-17T09:07:45.948Z,12.81
2022-11-17T09:10:13.321Z,14.03
2022-11-17T09:12:40.207Z,21.00
2022-11-17T09:15:07.574Z,22.22
2022-11-17T09:17:34.477Z,12.11
2022-11-17T09:20:01.340Z,13.17
2022-11-17T09:22:29.018Z,17.18
2022-11-17T09:24:56.035Z,14.70
2022-11-17T09:27:22.798Z,18.56
2022-11-17T09:29:49.578Z,20.02
2022-11-17T09:32:16.963Z,14.32
2022-11-17T09:34:44.305Z,11.14
2022-11-17T09:37:11.191Z,14.28
2022-11-17T09:39:37.945Z,16.63
2022-11-17T09:42:05.427Z,22.19
2022-11-17T09:44:39.798Z,14.38
2022-11-17T09:47:10.882Z,19.03
2022-11-17T09:49:58.945Z,16.74
2022-11-17T09:52:37.863Z,20.79
2022-11-17T09:55:22.671Z,17.85
2022-11-17T09:58:00.970Z,17.68
2022-11-17T10:00:28.846Z,19.64
2022-11-17T10:02:56.042Z,20.80
2022-11-17T10:05:35.205Z,22.41
2022-11-17T10:08:16.211Z,22.82
2022-11-17T10:10:46.293Z,19.58
2022-11-17T10:13:34.032Z,16.53
2022-11-17T10:16:05.370Z,15.77
2022-11-17T10:18:38.121Z,14.62
2022-11-17T10:21:06.944Z,14.98
2022-11-17T10:23:45.792Z,12.26
2022-11-17T10:26:16.189Z,14.88
2022-11-17T10:28:44.165Z,14.74
2022-11-17T10:31:16.603Z,15.08
2022-11-17T10:33:48.040Z,17.47
2022-11-17T10:36:22.258Z,16.12
2022-11-17T10:38:52.572Z,14.59
2022-11-17T10:41:22.923Z,14.96
2022-11-17T10:44:13.156Z,16.15
2022-11-17T10:47:08.127Z,17.04
2022-11-17T10:49:36.706Z,14.43
2022-11-17T10:52:06.226Z,14.79
2022-11-17T10:54:33.388Z,15.31
2022-11-17T10:57:01.725Z,17.46
2022-11-17T10:59:32.683Z,17.25
2022-11-17T11:02:26.111Z,17.41
2022-11-17T11:05:28.842Z,15.21
2022-11-17T11:08:18.436Z,15.23
2022-11-17T11:10:50.274Z,15.07
2022-11-17T11:13:40.680Z,17.79
2022-11-17T11:16:11.428Z,16.49
2022-11-17T11:18:39.186Z,17.25
2022-11-17T11:21:18.487Z,16.99
2022-11-17T11:23:45.528Z,15.35
2022-11-17T11:26:33.970Z,15.00
2022-11-17T11:29:12.961Z,14.05
2022-11-17T11:32:11.856Z,15.96
2022-11-17T11:34:44.986Z,15.99
2022-11-17T11:37:13.886Z,16.28
2022-11-17T11:40:04.955Z,14.26
2022-11-17T11:42:43.853Z,14.34
2022-11-17T11:45:22.345Z,13.67
2022-11-17T11:48:10.902Z,14.70
2022-11-17T11:51:00.196Z,15.92
2022-11-17T11:53:42.834Z,14.08
2022-11-17T11:56:28.025Z,13.63
2022-11-17T11:59:33.858Z,14.62
2022-11-17T12:02:12.642Z,14.89
2022-11-17T12:05:05.619Z,14.01
2022-11-17T12:07:48.074Z,13.02
2022-11-17T12:10:30.097Z,13.98
2022-11-17T12:12:58.290Z,13.97
2022-11-17T12:15:26.106Z,17.00
2022-11-17T12:17:52.765Z,17.59
2022-11-17T12:20:50.422Z,15.61
2022-11-17T12:23:42.685Z,15.51
2022-11-17T12:26:21.537Z,13.70
2022-11-17T12:28:48.314Z,14.59
2022-11-17T12:31:44.287Z,13.45
2022-11-17T12:34:22.025Z,13.60
2022-11-17T12:37:07.501Z,13.81
2022-11-17T12:39:56.882Z,13.88
2022-11-17T12:42:24.487Z,13.60
2022-11-17T12:45:00.502Z,14.08
2022-11-17T12:48:04.867Z,14.32
2022-11-17T12:51:04.470Z,13.28
2022-11-17T12:53:51.371Z,13.51
2022-11-17T12:56:23.872Z,13.42
2022-11-17T12:59:17.954Z,13.30
2022-11-17T13:02:04.332Z,14.07
2022-11-17T13:04:37.253Z,14.71
2022-11-17T13:07:06.647Z,14.72
2022-11-17T13:09:35.832Z,16.96
2022-11-17T13:12:06.110Z,15.57
2022-11-17T13:14:35.588Z,15.46
2022-11-17T13:17:03.209Z,15.99
2022-11-17T13:19:30.105Z,13.85
2022-11-17T13:22:15.474Z,13.86
2022-11-17T13:24:48.002Z,14.95
2022-11-17T13:27:30.903Z,14.33
2022-11-17T13:30:22.006Z,12.80
2022-11-17T13:32:49.767Z,12.93
2022-11-17T13:35:25.355Z,15.47
2022-11-17T13:38:19.974Z,15.18
2022-11-17T13:40:52.352Z,16.43
2022-11-17T13:43:24.256Z,16.59
2022-11-17T13:45:53.344Z,16.92
2022-11-17T13:48:40.928Z,16.88
2022-11-17T13:51:39.994Z,17.17
2022-11-17T13:54:18.082Z,15.47
2022-11-17T13:56:47.609Z,17.29
2022-11-17T13:59:37.211Z,16.83
2022-11-17T14:02:16.459Z,16.74
2022-11-17T14:05:09.461Z,16.12
2022-11-17T14:07:38.453Z,16.89
2022-11-17T14:10:28.286Z,17.45
2022-11-17T14:13:01.547Z,15.90
2022-11-17T14:15:32.170Z,17.15
2022-11-17T14:18:01.664Z,17.07
2022-11-17T14:20:34.971Z,16.39
2022-11-17T14:23:10.940Z,16.56
2022-11-17T14:25:43.500Z,16.93
2022-11-17T14:28:15.303Z,17.48
2022-11-17T14:30:42.491Z,14.88
2022-11-17T14:33:13.374Z,16.22
2022-11-17T14:35:41.415Z,16.53
2022-11-17T14:38:16.132Z,16.48
2022-11-17T14:40:42.854Z,15.04
2022-11-17T14:43:09.558Z,15.72
2022-11-17T14:45:36.445Z,16.66
2022-11-17T14:48:06.069Z,15.63
2022-11-17T14:50:33.919Z,14.87
2022-11-17T14:53:00.835Z,13.87
2022-11-17T14:55:27.775Z,15.10
2022-11-17T14:57:54.668Z,15.43
2022-11-17T15:00:21.929Z,16.37
2022-11-17T15:02:49.601Z,15.83
2022-11-17T15:05:17.603Z,14.63
2022-11-17T15:07:44.518Z,15.47
2022-11-17T15:10:11.753Z,13.77
2022-11-17T15:12:38.478Z,14.92
2022-11-17T15:15:05.699Z,12.29
2022-11-17T15:17:33.251Z,10.87
2022-11-17T15:20:00.056Z,13.52
2022-11-17T15:22:27.356Z,13.06
2022-11-17T15:24:55.197Z,14.73
2022-11-17T15:27:22.135Z,14.56
2022-11-17T15:29:50.123Z,14.75
2022-11-17T15:32:17.499Z,13.78
2022-11-17T15:34:44.422Z,11.01
2022-11-17T15:37:11.249Z,12.03
2022-11-17T15:39:37.934Z,11.38
2022-11-17T15:42:04.693Z,13.33
2022-11-17T15:44:32.827Z,12.58
2022-11-17T15:46:59.767Z,11.73
2022-11-17T15:49:26.552Z,10.88
2022-11-17T15:51:53.346Z,11.81
2022-11-17T15:54:21.158Z,12.61
2022-11-17T15:56:49.235Z,12.92
2022-11-17T15:59:16.749Z,11.67
2022-11-17T16:01:44.268Z,12.09
2022-11-17T16:04:15.377Z,8.96
2022-11-17T16:06:43.689Z,9.50
2022-11-17T16:09:11.925Z,9.04
2022-11-17T16:11:39.013Z,9.60
2022-11-17T16:14:06.390Z,10.35
2022-11-17T16:16:38.865Z,12.31
2022-11-17T16:19:06.304Z,11.22
2022-11-17T16:21:33.532Z,10.27
2022-11-17T16:24:02.546Z,8.85
2022-11-17T16:26:30.248Z,11.57
2022-11-17T16:29:02.789Z,11.17
2022-11-17T16:31:32.734Z,10.40
2022-11-17T16:34:10.882Z,8.31
2022-11-17T16:36:39.215Z,9.55
2022-11-17T16:39:09.289Z,10.22
2022-11-17T16:41:38.509Z,10.52
2022-11-17T16:44:13.151Z,10.32
2022-11-17T16:46:42.827Z,9.08
2022-11-17T16:49:12.282Z,10.77
2022-11-17T16:51:39.116Z,8.58
2022-11-17T16:54:07.805Z,7.47
2022-11-17T16:56:35.081Z,8.87
2022-11-17T16:59:01.917Z,8.29
2022-11-17T17:01:31.817Z,7.97
2022-11-17T17:04:05.183Z,7.09
2022-11-17T17:06:32.696Z,8.51
2022-11-17T17:09:03.163Z,9.68
2022-11-17T17:11:32.335Z,8.59
2022-11-17T17:14:03.119Z,8.17
2022-11-17T17:16:33.214Z,8.84
2022-11-17T17:19:02.007Z,10.52
2022-11-17T17:21:29.573Z,9.94
2022-11-17T17:23:56.706Z,8.83
2022-11-17T17:26:25.336Z,9.35
2022-11-17T17:28:55.220Z,9.86
2022-11-17T17:31:23.590Z,8.65
2022-11-17T17:33:51.576Z,9.06
2022-11-17T17:36:21.416Z,7.59
2022-11-17T17:38:55.099Z,9.32
2022-11-17T17:41:24.514Z,9.94
2022-11-17T17:43:56.852Z,8.17
2022-11-17T17:46:24.293Z,8.31
2022-11-17T17:48:51.364Z,9.71
2022-11-17T17:51:20.587Z,10.72
2022-11-17T17:53:50.467Z,10.72
2022-11-17T17:56:19.785Z,9.67
2022-11-17T17:58:48.977Z,8.42
2022-11-17T18:01:17.440Z,8.67
2022-11-17T18:03:46.557Z,6.21
2022-11-17T18:06:16.381Z,8.49
2022-11-17T18:08:43.634Z,7.03
2022-11-17T18:11:12.805Z,7.14
2022-11-17T18:13:42.433Z,7.44
2022-11-17T18:16:11.551Z,8.99
2022-11-17T18:18:38.850Z,10.08
2022-11-17T18:21:08.415Z,9.02
2022-11-17T18:23:36.773Z,9.27
2022-11-17T18:26:19.757Z,9.49
2022-11-17T18:29:06.154Z,10.09
2022-11-17T18:31:35.890Z,10.12
2022-11-17T18:34:06.074Z,9.61
2022-11-17T18:36:34.777Z,10.34
2022-11-17T18:39:01.626Z,9.90
2022-11-17T18:41:30.934Z,8.56
2022-11-17T18:43:58.595Z,7.56
2022-11-17T18:46:27.421Z,6.58
2022-11-17T18:48:54.198Z,9.93
2022-11-17T18:51:23.581Z,9.94
2022-11-17T18:53:52.022Z,9.82
2022-11-17T18:56:25.386Z,9.00
2022-11-17T18:58:52.546Z,7.08
2022-11-17T19:01:21.054Z,8.66
2022-11-17T19:03:50.982Z,7.78
2022-11-17T19:06:19.371Z,8.99
2022-11-17T19:08:48.182Z,9.43
2022-11-17T19:11:16.320Z,9.86
2022-11-17T19:13:43.512Z,9.50
2022-11-17T19:16:19.210Z,10.00
2022-11-17T19:18:48.137Z,10.94
2022-11-17T19:21:21.181Z,10.50
2022-11-17T19:23:51.981Z,9.49
2022-11-17T19:26:22.513Z,9.56
2022-11-17T19:28:50.635Z,9.69
2022-11-17T19:31:19.976Z,9.91
2022-11-17T19:33:48.719Z,8.98
2022-11-17T19:36:19.647Z,7.26
2022-11-17T19:38:51.663Z,7.97
2022-11-17T19:41:21.437Z,9.42
2022-11-17T19:43:48.646Z,9.41
2022-11-17T19:46:17.046Z,9.47
2022-11-17T19:48:44.807Z,9.26
2022-11-17T19:51:21.648Z,9.58
2022-11-17T19:53:50.270Z,9.86
2022-11-17T19:56:17.720Z,9.32
2022-11-17T19:58:45.915Z,9.08
2022-11-17T20:01:22.261Z,9.03
2022-11-17T20:03:50.445Z,10.53
2022-11-17T20:06:20.028Z,10.09
2022-11-17T20:08:48.840Z,8.75
2022-11-17T20:11:26.911Z,8.50
2022-11-17T20:13:56.151Z,8.86
2022-11-17T20:16:25.215Z,9.00
2022-11-17T20:18:54.844Z,10.93
2022-11-17T20:21:22.622Z,11.10
2022-11-17T20:23:50.626Z,9.62
2022-11-17T20:26:19.259Z,10.06
2022-11-17T20:28:46.799Z,10.86
2022-11-17T20:31:24.814Z,11.29
2022-11-17T20:33:53.972Z,9.73
2022-11-17T20:36:23.916Z,8.16
2022-11-17T20:38:55.436Z,9.43
2022-11-17T20:41:23.821Z,10.20
2022-11-17T20:43:52.917Z,9.25
2022-11-17T20:46:21.154Z,9.63
2022-11-17T20:48:50.718Z,8.84
2022-11-17T20:51:23.422Z,7.02
2022-11-17T20:53:51.227Z,7.27
2022-11-17T20:56:19.467Z,8.10
2022-11-17T20:58:46.438Z,9.38
2022-11-17T21:01:17.056Z,8.98
2022-11-17T21:03:45.422Z,10.10
2022-11-17T21:06:13.169Z,9.65
2022-11-17T21:08:41.425Z,10.00
2022-11-17T21:11:10.998Z,7.78
2022-11-17T21:13:38.391Z,6.46
2022-11-17T21:16:11.914Z,6.78
2022-11-17T21:18:47.312Z,6.90
2022-11-17T21:21:14.890Z,10.48
2022-11-17T21:23:43.486Z,9.89
2022-11-17T21:26:13.513Z,9.89
2022-11-17T21:28:41.454Z,10.30
2022-11-17T21:31:24.496Z,8.99
2022-11-17T21:34:03.047Z,10.51
2022-11-17T21:36:31.542Z,9.73
2022-11-17T21:38:58.751Z,8.47
2022-11-17T21:41:30.282Z,9.05
2022-11-17T21:44:00.951Z,7.85
2022-11-17T21:46:29.993Z,8.86
2022-11-17T21:48:58.678Z,7.93
2022-11-17T21:51:28.469Z,10.46
2022-11-17T21:53:57.598Z,9.13
2022-11-17T21:56:26.939Z,9.64
2022-11-17T21:58:57.329Z,8.16
2022-11-17T22:01:24.823Z,7.13
2022-11-17T22:03:52.144Z,7.88
2022-11-17T22:06:21.893Z,8.11
2022-11-17T22:08:50.231Z,8.90
2022-11-17T22:11:35.787Z,9.74
2022-11-17T22:14:08.844Z,11.16
2022-11-17T22:16:38.209Z,9.12
2022-11-17T22:19:07.074Z,9.77
2022-11-17T22:21:36.660Z,10.36
2022-11-17T22:24:05.192Z,8.87
2022-11-17T22:26:32.385Z,10.36
2022-11-17T22:28:59.577Z,9.08
2022-11-17T22:31:26.347Z,10.52
2022-11-17T22:33:53.649Z,10.00
2022-11-17T22:36:21.298Z,10.03
2022-11-17T22:38:53.106Z,7.56
2022-11-17T22:41:22.147Z,9.34
2022-11-17T22:43:53.833Z,10.43
2022-11-17T22:46:22.238Z,9.30
2022-11-17T22:48:49.187Z,9.51
2022-11-17T22:51:38.920Z,8.66
2022-11-17T22:54:08.279Z,8.81
2022-11-17T22:56:36.358Z,10.29
2022-11-17T22:59:03.283Z,10.05
2022-11-17T23:01:30.086Z,8.15
2022-11-17T23:03:57.058Z,9.49
2022-11-17T23:06:24.303Z,11.17
2022-11-17T23:08:51.996Z,10.42
2022-11-17T23:14:09.180Z,7.26
2022-11-17T23:16:37.726Z,9.61
2022-11-17T23:19:05.680Z,8.24
2022-11-17T23:21:33.095Z,9.92
2022-11-17T23:24:00.000Z,8.37
2022-11-17T23:26:26.957Z,9.98
2022-11-17T23:28:54.266Z,9.05
2022-11-17T23:31:21.563Z,9.74
2022-11-17T23:33:49.213Z,8.61
2022-11-17T23:36:20.914Z,8.50
2022-11-17T23:38:48.738Z,10.43
2022-11-17T23:41:19.244Z,9.37
2022-11-17T23:43:46.658Z,9.84
2022-11-17T23:46:16.805Z,9.47
2022-11-17T23:48:44.519Z,9.68
2022-11-17T23:51:16.601Z,8.15
2022-11-17T23:53:43.365Z,9.51
2022-11-17T23:56:10.970Z,10.21
2022-11-17T23:58:38.205Z,10.57
